Terminal Aerodrome Forecast
Issued by NWS

Home | Current Version | Previous Version | Text Only | Print | Product List | Glossary On
Versions: 1 2 3 4 5 6 7 8 9 10 11 12 13 14 15 16 17 18 19 20 21 22 23 24 25 26
332
FTUS41 KOKX 301430 AAA
TAFSWF
TAF AMD
KSWF 301430Z 3015/0118 VRB04KT P6SM BKN050
     FM301600 15005KT P6SM FEW050 SCT250
     FM302100 18006KT P6SM FEW050 SCT250
     FM010000 VRB04KT P6SM SCT070 BKN120
     FM011200 12006KT 6SM -RA BKN040
     FM011500 11008KT 5SM -RA BR BKN020=

USA.gov is the U.S. government's official web portal to all federal, state and local government web resources and services.